sensor_id;sensor_type;location;lat;lon;timestamp;temperature;humidity
29729;DHT22;20055;51.498;11.960;2022-09-13T00:00:58;15.50;99.90
29729;DHT22;20055;51.498;11.960;2022-09-13T00:03:25;15.90;99.90
29729;DHT22;20055;51.498;11.960;2022-09-13T00:05:52;15.40;99.90
29729;DHT22;20055;51.498;11.960;2022-09-13T00:08:18;15.40;99.90
29729;DHT22;20055;51.498;11.960;2022-09-13T00:10:45;15.40;99.90
29729;DHT22;20055;51.498;11.960;2022-09-13T00:13:13;15.40;99.90
29729;DHT22;20055;51.498;11.960;2022-09-13T00:15:44;15.30;99.90
29729;DHT22;20055;51.498;11.960;2022-09-13T00:18:11;15.30;99.90
29729;DHT22;20055;51.498;11.960;2022-09-13T00:20:38;15.30;99.90
29729;DHT22;20055;51.498;11.960;2022-09-13T00:23:04;15.20;99.90
29729;DHT22;20055;51.498;11.960;2022-09-13T00:25:30;15.20;99.90
29729;DHT22;20055;51.498;11.960;2022-09-13T00:27:56;15.20;99.90
29729;DHT22;20055;51.498;11.960;2022-09-13T00:30:23;15.20;99.90
29729;DHT22;20055;51.498;11.960;2022-09-13T00:32:49;15.20;99.90
29729;DHT22;20055;51.498;11.960;2022-09-13T00:35:15;15.10;99.90
29729;DHT22;20055;51.498;11.960;2022-09-13T00:37:42;15.10;99.90
29729;DHT22;20055;51.498;11.960;2022-09-13T00:40:09;15.40;99.90
29729;DHT22;20055;51.498;11.960;2022-09-13T00:42:36;15.10;99.90
29729;DHT22;20055;51.498;11.960;2022-09-13T00:52:34;15.00;99.90
29729;DHT22;20055;51.498;11.960;2022-09-13T00:55:07;14.90;99.90
29729;DHT22;20055;51.498;11.960;2022-09-13T00:57:37;14.90;99.90
29729;DHT22;20055;51.498;11.960;2022-09-13T01:00:12;14.90;99.90
29729;DHT22;20055;51.498;11.960;2022-09-13T01:02:45;14.80;99.90
29729;DHT22;20055;51.498;11.960;2022-09-13T01:05:17;14.70;99.90
29729;DHT22;20055;51.498;11.960;2022-09-13T01:07:45;14.70;99.90
29729;DHT22;20055;51.498;11.960;2022-09-13T01:10:13;14.70;99.90
29729;DHT22;20055;51.498;11.960;2022-09-13T01:12:48;14.70;99.90
29729;DHT22;20055;51.498;11.960;2022-09-13T01:15:16;14.70;99.90
29729;DHT22;20055;51.498;11.960;2022-09-13T01:17:42;14.60;99.90
29729;DHT22;20055;51.498;11.960;2022-09-13T01:20:09;14.50;99.90
29729;DHT22;20055;51.498;11.960;2022-09-13T01:23:04;14.60;99.90
29729;DHT22;20055;51.498;11.960;2022-09-13T01:28:57;14.50;99.90
29729;DHT22;20055;51.498;11.960;2022-09-13T01:37:16;14.50;99.90
29729;DHT22;20055;51.498;11.960;2022-09-13T01:40:38;14.50;99.90
29729;DHT22;20055;51.498;11.960;2022-09-13T01:48:32;14.50;99.90
29729;DHT22;20055;51.498;11.960;2022-09-13T01:51:06;14.50;99.90
29729;DHT22;20055;51.498;11.960;2022-09-13T01:53:50;14.50;99.90
29729;DHT22;20055;51.498;11.960;2022-09-13T01:56:25;14.50;99.90
29729;DHT22;20055;51.498;11.960;2022-09-13T01:59:02;14.50;99.90
29729;DHT22;20055;51.498;11.960;2022-09-13T02:01:35;14.50;99.90
29729;DHT22;20055;51.498;11.960;2022-09-13T02:04:17;14.60;99.90
29729;DHT22;20055;51.498;11.960;2022-09-13T02:07:18;14.50;99.90
29729;DHT22;20055;51.498;11.960;2022-09-13T02:09:48;14.50;99.90
29729;DHT22;20055;51.498;11.960;2022-09-13T02:12:22;14.50;99.90
29729;DHT22;20055;51.498;11.960;2022-09-13T02:15:02;14.50;99.90
29729;DHT22;20055;51.498;11.960;2022-09-13T02:17:36;14.50;99.90
29729;DHT22;20055;51.498;11.960;2022-09-13T02:20:16;14.50;99.90
29729;DHT22;20055;51.498;11.960;2022-09-13T02:22:48;14.50;99.90
29729;DHT22;20055;51.498;11.960;2022-09-13T02:25:18;14.40;99.90
29729;DHT22;20055;51.498;11.960;2022-09-13T02:27:49;14.40;99.90
29729;DHT22;20055;51.498;11.960;2022-09-13T02:30:17;14.40;99.90
29729;DHT22;20055;51.498;11.960;2022-09-13T02:35:34;14.40;99.90
29729;DHT22;20055;51.498;11.960;2022-09-13T02:38:04;14.30;99.90
29729;DHT22;20055;51.498;11.960;2022-09-13T02:40:42;14.30;99.90
29729;DHT22;20055;51.498;11.960;2022-09-13T02:43:16;14.30;99.90
29729;DHT22;20055;51.498;11.960;2022-09-13T02:45:51;14.30;99.90
29729;DHT22;20055;51.498;11.960;2022-09-13T02:48:56;14.30;99.90
29729;DHT22;20055;51.498;11.960;2022-09-13T02:51:54;14.30;99.90
29729;DHT22;20055;51.498;11.960;2022-09-13T02:54:28;14.30;99.90
29729;DHT22;20055;51.498;11.960;2022-09-13T02:59:26;14.30;99.90
29729;DHT22;20055;51.498;11.960;2022-09-13T03:02:06;14.20;99.90
29729;DHT22;20055;51.498;11.960;2022-09-13T03:04:33;14.20;99.90
29729;DHT22;20055;51.498;11.960;2022-09-13T03:07:01;14.30;99.90
29729;DHT22;20055;51.498;11.960;2022-09-13T03:09:31;14.30;99.90
29729;DHT22;20055;51.498;11.960;2022-09-13T03:23:43;14.10;99.90
29729;DHT22;20055;51.498;11.960;2022-09-13T03:32:01;14.10;99.90
29729;DHT22;20055;51.498;11.960;2022-09-13T03:37:11;14.10;99.90
29729;DHT22;20055;51.498;11.960;2022-09-13T03:39:50;14.10;99.90
29729;DHT22;20055;51.498;11.960;2022-09-13T03:42:22;14.10;99.90
29729;DHT22;20055;51.498;11.960;2022-09-13T03:44:50;14.10;99.90
29729;DHT22;20055;51.498;11.960;2022-09-13T03:47:18;14.10;99.90
29729;DHT22;20055;51.498;11.960;2022-09-13T03:49:47;14.10;99.90
29729;DHT22;20055;51.498;11.960;2022-09-13T03:52:13;14.10;99.90
29729;DHT22;20055;51.498;11.960;2022-09-13T03:54:39;14.10;99.90
29729;DHT22;20055;51.498;11.960;2022-09-13T03:57:17;14.00;99.90
29729;DHT22;20055;51.498;11.960;2022-09-13T03:59:47;14.00;99.90
29729;DHT22;20055;51.498;11.960;2022-09-13T04:02:15;14.00;99.90
29729;DHT22;20055;51.498;11.960;2022-09-13T04:04:42;14.00;99.90
29729;DHT22;20055;51.498;11.960;2022-09-13T04:07:11;14.00;99.90
29729;DHT22;20055;51.498;11.960;2022-09-13T04:09:38;14.10;99.90
29729;DHT22;20055;51.498;11.960;2022-09-13T04:12:05;14.20;99.90
29729;DHT22;20055;51.498;11.960;2022-09-13T04:14:31;14.20;99.90
29729;DHT22;20055;51.498;11.960;2022-09-13T04:16:58;14.20;99.90
29729;DHT22;20055;51.498;11.960;2022-09-13T04:19:25;14.20;99.90
29729;DHT22;20055;51.498;11.960;2022-09-13T04:21:54;14.30;99.90
29729;DHT22;20055;51.498;11.960;2022-09-13T04:24:24;14.40;99.90
29729;DHT22;20055;51.498;11.960;2022-09-13T04:26:52;14.50;99.90
29729;DHT22;20055;51.498;11.960;2022-09-13T04:29:20;14.70;99.90
29729;DHT22;20055;51.498;11.960;2022-09-13T04:31:48;14.90;99.90
29729;DHT22;20055;51.498;11.960;2022-09-13T04:34:15;14.90;99.90
29729;DHT22;20055;51.498;11.960;2022-09-13T04:36:46;15.00;99.90
29729;DHT22;20055;51.498;11.960;2022-09-13T04:39:12;14.90;99.90
29729;DHT22;20055;51.498;11.960;2022-09-13T04:41:43;15.00;99.90
29729;DHT22;20055;51.498;11.960;2022-09-13T04:44:14;15.10;99.90
29729;DHT22;20055;51.498;11.960;2022-09-13T04:46:41;15.30;99.90
29729;DHT22;20055;51.498;11.960;2022-09-13T04:49:09;15.50;99.90
29729;DHT22;20055;51.498;11.960;2022-09-13T04:51:35;15.60;99.90
29729;DHT22;20055;51.498;11.960;2022-09-13T04:54:01;15.90;99.90
29729;DHT22;20055;51.498;11.960;2022-09-13T04:56:28;16.30;99.90
29729;DHT22;20055;51.498;11.960;2022-09-13T04:58:55;16.20;99.90
29729;DHT22;20055;51.498;11.960;2022-09-13T05:01:22;16.30;99.90
29729;DHT22;20055;51.498;11.960;2022-09-13T05:03:50;16.40;99.90
29729;DHT22;20055;51.498;11.960;2022-09-13T05:06:17;16.50;99.90
29729;DHT22;20055;51.498;11.960;2022-09-13T05:08:49;16.50;99.90
29729;DHT22;20055;51.498;11.960;2022-09-13T05:11:17;16.40;99.90
29729;DHT22;20055;51.498;11.960;2022-09-13T05:13:43;16.30;99.90
29729;DHT22;20055;51.498;11.960;2022-09-13T05:16:18;16.20;99.90
29729;DHT22;20055;51.498;11.960;2022-09-13T05:18:44;16.00;99.90
29729;DHT22;20055;51.498;11.960;2022-09-13T05:21:10;16.10;99.90
29729;DHT22;20055;51.498;11.960;2022-09-13T05:23:36;16.10;99.90
29729;DHT22;20055;51.498;11.960;2022-09-13T05:26:04;16.10;99.90
29729;DHT22;20055;51.498;11.960;2022-09-13T05:28:33;15.90;99.90
29729;DHT22;20055;51.498;11.960;2022-09-13T05:31:02;15.80;99.90
29729;DHT22;20055;51.498;11.960;2022-09-13T05:33:31;15.90;99.90
29729;DHT22;20055;51.498;11.960;2022-09-13T05:35:57;15.80;99.90
29729;DHT22;20055;51.498;11.960;2022-09-13T05:38:24;15.90;99.90
29729;DHT22;20055;51.498;11.960;2022-09-13T05:40:54;16.00;99.90
29729;DHT22;20055;51.498;11.960;2022-09-13T05:43:26;16.10;99.90
29729;DHT22;20055;51.498;11.960;2022-09-13T05:46:06;16.10;99.90
29729;DHT22;20055;51.498;11.960;2022-09-13T05:48:34;16.00;99.90
29729;DHT22;20055;51.498;11.960;2022-09-13T05:51:12;16.10;99.90
29729;DHT22;20055;51.498;11.960;2022-09-13T05:53:40;16.10;99.90
29729;DHT22;20055;51.498;11.960;2022-09-13T05:56:10;16.00;99.90
29729;DHT22;20055;51.498;11.960;2022-09-13T05:58:40;15.90;99.90
29729;DHT22;20055;51.498;11.960;2022-09-13T06:01:09;15.60;99.90
29729;DHT22;20055;51.498;11.960;2022-09-13T06:03:35;15.60;99.90
29729;DHT22;20055;51.498;11.960;2022-09-13T06:06:02;15.60;99.90
29729;DHT22;20055;51.498;11.960;2022-09-13T06:08:31;15.60;99.90
29729;DHT22;20055;51.498;11.960;2022-09-13T06:11:03;15.50;99.90
29729;DHT22;20055;51.498;11.960;2022-09-13T06:13:30;15.40;99.90
29729;DHT22;20055;51.498;11.960;2022-09-13T06:15:58;15.50;99.90
29729;DHT22;20055;51.498;11.960;2022-09-13T06:18:25;15.70;99.90
29729;DHT22;20055;51.498;11.960;2022-09-13T06:21:03;15.90;99.90
29729;DHT22;20055;51.498;11.960;2022-09-13T06:23:31;16.00;99.90
29729;DHT22;20055;51.498;11.960;2022-09-13T06:26:02;16.00;99.90
29729;DHT22;20055;51.498;11.960;2022-09-13T06:28:28;16.10;99.90
29729;DHT22;20055;51.498;11.960;2022-09-13T06:31:02;16.00;99.90
29729;DHT22;20055;51.498;11.960;2022-09-13T06:33:29;16.10;99.90
29729;DHT22;20055;51.498;11.960;2022-09-13T06:35:59;16.00;99.90
29729;DHT22;20055;51.498;11.960;2022-09-13T06:38:26;16.10;99.90
29729;DHT22;20055;51.498;11.960;2022-09-13T06:41:03;16.10;99.90
29729;DHT22;20055;51.498;11.960;2022-09-13T06:43:30;16.10;99.90
29729;DHT22;20055;51.498;11.960;2022-09-13T06:46:02;16.20;99.90
29729;DHT22;20055;51.498;11.960;2022-09-13T06:48:30;16.20;99.90
29729;DHT22;20055;51.498;11.960;2022-09-13T06:50:59;16.30;99.90
29729;DHT22;20055;51.498;11.960;2022-09-13T06:53:25;16.40;99.90
29729;DHT22;20055;51.498;11.960;2022-09-13T06:56:14;16.40;99.90
29729;DHT22;20055;51.498;11.960;2022-09-13T06:58:42;16.50;99.90
29729;DHT22;20055;51.498;11.960;2022-09-13T07:01:15;16.50;99.90
29729;DHT22;20055;51.498;11.960;2022-09-13T07:03:44;16.60;99.90
29729;DHT22;20055;51.498;11.960;2022-09-13T07:06:13;16.60;99.90
29729;DHT22;20055;51.498;11.960;2022-09-13T07:08:41;16.60;99.90
29729;DHT22;20055;51.498;11.960;2022-09-13T07:11:10;16.60;99.90
29729;DHT22;20055;51.498;11.960;2022-09-13T07:13:36;16.60;99.90
29729;DHT22;20055;51.498;11.960;2022-09-13T07:16:08;16.70;99.90
29729;DHT22;20055;51.498;11.960;2022-09-13T07:18:35;16.70;99.90
29729;DHT22;20055;51.498;11.960;2022-09-13T07:21:03;16.90;99.90
29729;DHT22;20055;51.498;11.960;2022-09-13T07:23:35;17.10;99.90
29729;DHT22;20055;51.498;11.960;2022-09-13T07:26:03;17.30;99.90
29729;DHT22;20055;51.498;11.960;2022-09-13T07:28:36;17.50;99.90
29729;DHT22;20055;51.498;11.960;2022-09-13T07:31:04;17.70;99.90
29729;DHT22;20055;51.498;11.960;2022-09-13T07:33:31;17.90;99.90
29729;DHT22;20055;51.498;11.960;2022-09-13T07:35:57;18.10;99.90
29729;DHT22;20055;51.498;11.960;2022-09-13T07:38:26;18.30;99.90
29729;DHT22;20055;51.498;11.960;2022-09-13T07:40:53;18.50;99.90
29729;DHT22;20055;51.498;11.960;2022-09-13T07:43:20;18.60;99.90
29729;DHT22;20055;51.498;11.960;2022-09-13T07:45:47;18.70;99.90
29729;DHT22;20055;51.498;11.960;2022-09-13T07:48:13;18.90;99.90
29729;DHT22;20055;51.498;11.960;2022-09-13T07:50:39;19.00;99.90
29729;DHT22;20055;51.498;11.960;2022-09-13T07:53:05;19.10;99.90
29729;DHT22;20055;51.498;11.960;2022-09-13T07:55:32;19.20;99.90
29729;DHT22;20055;51.498;11.960;2022-09-13T07:57:58;19.20;99.90
29729;DHT22;20055;51.498;11.960;2022-09-13T08:00:24;19.10;99.90
29729;DHT22;20055;51.498;11.960;2022-09-13T08:02:51;19.10;99.90
29729;DHT22;20055;51.498;11.960;2022-09-13T08:05:17;19.10;99.90
29729;DHT22;20055;51.498;11.960;2022-09-13T08:07:43;19.20;99.90
29729;DHT22;20055;51.498;11.960;2022-09-13T08:10:09;19.10;99.90
29729;DHT22;20055;51.498;11.960;2022-09-13T08:12:36;19.20;99.90
29729;DHT22;20055;51.498;11.960;2022-09-13T08:15:02;19.20;99.90
29729;DHT22;20055;51.498;11.960;2022-09-13T08:17:29;19.40;99.90
29729;DHT22;20055;51.498;11.960;2022-09-13T08:19:55;19.50;99.90
29729;DHT22;20055;51.498;11.960;2022-09-13T08:22:21;19.50;99.90
29729;DHT22;20055;51.498;11.960;2022-09-13T08:24:47;19.60;99.90
29729;DHT22;20055;51.498;11.960;2022-09-13T08:27:14;19.70;99.90
29729;DHT22;20055;51.498;11.960;2022-09-13T08:29:40;19.70;99.90
29729;DHT22;20055;51.498;11.960;2022-09-13T08:32:06;19.60;99.90
29729;DHT22;20055;51.498;11.960;2022-09-13T08:34:32;19.80;99.90
29729;DHT22;20055;51.498;11.960;2022-09-13T08:36:58;19.90;99.90
29729;DHT22;20055;51.498;11.960;2022-09-13T08:39:25;20.10;99.90
29729;DHT22;20055;51.498;11.960;2022-09-13T08:41:54;19.90;99.90
29729;DHT22;20055;51.498;11.960;2022-09-13T08:49:34;20.20;99.90
29729;DHT22;20055;51.498;11.960;2022-09-13T08:54:52;20.60;99.90
29729;DHT22;20055;51.498;11.960;2022-09-13T08:57:41;20.60;99.90
29729;DHT22;20055;51.498;11.960;2022-09-13T09:00:19;20.60;99.90
29729;DHT22;20055;51.498;11.960;2022-09-13T09:03:09;20.80;99.90
29729;DHT22;20055;51.498;11.960;2022-09-13T09:05:45;21.00;99.90
29729;DHT22;20055;51.498;11.960;2022-09-13T09:08:36;21.50;99.90
29729;DHT22;20055;51.498;11.960;2022-09-13T09:11:09;21.90;99.90
29729;DHT22;20055;51.498;11.960;2022-09-13T09:14:17;22.10;99.90
29729;DHT22;20055;51.498;11.960;2022-09-13T09:16:50;22.30;99.90
29729;DHT22;20055;51.498;11.960;2022-09-13T09:22:17;22.80;99.90
29729;DHT22;20055;51.498;11.960;2022-09-13T09:24:50;23.10;99.90
29729;DHT22;20055;51.498;11.960;2022-09-13T09:27:19;22.90;99.90
29729;DHT22;20055;51.498;11.960;2022-09-13T09:29:48;22.60;99.90
29729;DHT22;20055;51.498;11.960;2022-09-13T09:33:24;22.70;99.90
29729;DHT22;20055;51.498;11.960;2022-09-13T09:41:05;22.60;99.90
29729;DHT22;20055;51.498;11.960;2022-09-13T09:43:47;22.50;99.90
29729;DHT22;20055;51.498;11.960;2022-09-13T09:46:20;22.50;99.90
29729;DHT22;20055;51.498;11.960;2022-09-13T09:48:51;22.50;99.90
29729;DHT22;20055;51.498;11.960;2022-09-13T09:51:19;22.80;99.90
29729;DHT22;20055;51.498;11.960;2022-09-13T09:53:53;23.00;99.90
29729;DHT22;20055;51.498;11.960;2022-09-13T09:56:29;22.90;99.90
29729;DHT22;20055;51.498;11.960;2022-09-13T09:58:56;23.00;99.90
29729;DHT22;20055;51.498;11.960;2022-09-13T10:01:28;23.20;99.90
29729;DHT22;20055;51.498;11.960;2022-09-13T10:06:37;24.10;99.90
29729;DHT22;20055;51.498;11.960;2022-09-13T10:09:12;24.20;99.90
29729;DHT22;20055;51.498;11.960;2022-09-13T10:11:49;24.50;99.90
29729;DHT22;20055;51.498;11.960;2022-09-13T10:22:20;24.80;99.90
29729;DHT22;20055;51.498;11.960;2022-09-13T10:24:47;25.00;99.90
29729;DHT22;20055;51.498;11.960;2022-09-13T10:27:31;24.90;99.90
29729;DHT22;20055;51.498;11.960;2022-09-13T10:30:00;25.10;99.90
29729;DHT22;20055;51.498;11.960;2022-09-13T10:32:27;25.00;99.90
29729;DHT22;20055;51.498;11.960;2022-09-13T10:34:55;24.80;99.90
29729;DHT22;20055;51.498;11.960;2022-09-13T10:37:30;24.70;99.90
29729;DHT22;20055;51.498;11.960;2022-09-13T10:40:04;24.50;99.90
29729;DHT22;20055;51.498;11.960;2022-09-13T10:42:34;24.70;99.90
29729;DHT22;20055;51.498;11.960;2022-09-13T10:45:06;24.50;99.90
29729;DHT22;20055;51.498;11.960;2022-09-13T10:50:23;24.70;99.90
29729;DHT22;20055;51.498;11.960;2022-09-13T10:52:51;24.60;99.90
29729;DHT22;20055;51.498;11.960;2022-09-13T10:57:51;25.00;99.70
29729;DHT22;20055;51.498;11.960;2022-09-13T11:00:20;25.10;99.40
29729;DHT22;20055;51.498;11.960;2022-09-13T11:03:40;25.20;98.80
29729;DHT22;20055;51.498;11.960;2022-09-13T11:11:39;25.10;98.90
29729;DHT22;20055;51.498;11.960;2022-09-13T11:20:17;25.30;98.40
29729;DHT22;20055;51.498;11.960;2022-09-13T11:34:30;25.20;98.70
29729;DHT22;20055;51.498;11.960;2022-09-13T11:37:31;25.30;98.20
29729;DHT22;20055;51.498;11.960;2022-09-13T11:43:27;25.20;97.90
29729;DHT22;20055;51.498;11.960;2022-09-13T11:46:09;25.00;98.30
29729;DHT22;20055;51.498;11.960;2022-09-13T11:51:53;25.10;98.10
29729;DHT22;20055;51.498;11.960;2022-09-13T11:57:10;25.10;98.10
29729;DHT22;20055;51.498;11.960;2022-09-13T11:59:48;25.00;98.60
29729;DHT22;20055;51.498;11.960;2022-09-13T12:07:36;25.50;98.00
29729;DHT22;20055;51.498;11.960;2022-09-13T12:11:02;25.40;98.00
29729;DHT22;20055;51.498;11.960;2022-09-13T12:13:01;25.30;98.60
29729;DHT22;20055;51.498;11.960;2022-09-13T12:15:34;25.50;98.40
29729;DHT22;20055;51.498;11.960;2022-09-13T12:18:15;25.00;98.60
29729;DHT22;20055;51.498;11.960;2022-09-13T12:23:19;25.40;98.30
29729;DHT22;20055;51.498;11.960;2022-09-13T12:26:00;25.30;98.00
29729;DHT22;20055;51.498;11.960;2022-09-13T12:28:44;25.20;98.40
29729;DHT22;20055;51.498;11.960;2022-09-13T12:31:16;25.30;98.20
29729;DHT22;20055;51.498;11.960;2022-09-13T12:33:45;25.00;98.90
29729;DHT22;20055;51.498;11.960;2022-09-13T12:42:14;25.40;98.50
29729;DHT22;20055;51.498;11.960;2022-09-13T12:47:49;25.50;98.20
29729;DHT22;20055;51.498;11.960;2022-09-13T12:56:08;25.30;98.60
29729;DHT22;20055;51.498;11.960;2022-09-13T12:59:06;25.10;98.70
29729;DHT22;20055;51.498;11.960;2022-09-13T13:01:35;25.30;98.80
29729;DHT22;20055;51.498;11.960;2022-09-13T13:04:13;25.60;98.60
29729;DHT22;20055;51.498;11.960;2022-09-13T13:06:48;25.40;98.20
29729;DHT22;20055;51.498;11.960;2022-09-13T13:09:42;25.20;98.90
29729;DHT22;20055;51.498;11.960;2022-09-13T13:12:11;25.40;99.00
29729;DHT22;20055;51.498;11.960;2022-09-13T13:17:43;25.40;98.80
29729;DHT22;20055;51.498;11.960;2022-09-13T13:34:47;26.00;98.40
29729;DHT22;20055;51.498;11.960;2022-09-13T13:39:45;26.00;98.10
29729;DHT22;20055;51.498;11.960;2022-09-13T13:49:49;25.30;98.80
29729;DHT22;20055;51.498;11.960;2022-09-13T13:57:29;25.60;98.50
29729;DHT22;20055;51.498;11.960;2022-09-13T14:00:04;25.60;98.50
29729;DHT22;20055;51.498;11.960;2022-09-13T14:03:08;25.60;98.40
29729;DHT22;20055;51.498;11.960;2022-09-13T14:06:15;25.50;98.70
29729;DHT22;20055;51.498;11.960;2022-09-13T14:09:20;25.30;98.80
29729;DHT22;20055;51.498;11.960;2022-09-13T14:17:42;24.80;99.90
29729;DHT22;20055;51.498;11.960;2022-09-13T14:20:15;24.60;99.90
29729;DHT22;20055;51.498;11.960;2022-09-13T14:22:42;24.40;99.90
29729;DHT22;20055;51.498;11.960;2022-09-13T14:25:26;24.10;99.90
29729;DHT22;20055;51.498;11.960;2022-09-13T14:27:55;23.80;99.90
29729;DHT22;20055;51.498;11.960;2022-09-13T14:30:35;23.70;99.90
29729;DHT22;20055;51.498;11.960;2022-09-13T14:33:03;23.60;99.90
29729;DHT22;20055;51.498;11.960;2022-09-13T14:35:33;23.50;99.90
29729;DHT22;20055;51.498;11.960;2022-09-13T14:38:19;23.40;99.90
29729;DHT22;20055;51.498;11.960;2022-09-13T14:40:48;23.10;99.90
29729;DHT22;20055;51.498;11.960;2022-09-13T14:43:17;22.80;99.90
29729;DHT22;20055;51.498;11.960;2022-09-13T14:45:47;22.80;99.90
29729;DHT22;20055;51.498;11.960;2022-09-13T14:48:16;22.90;99.90
29729;DHT22;20055;51.498;11.960;2022-09-13T14:51:03;22.90;99.90
29729;DHT22;20055;51.498;11.960;2022-09-13T14:53:33;22.70;99.90
29729;DHT22;20055;51.498;11.960;2022-09-13T14:56:06;22.80;99.90
29729;DHT22;20055;51.498;11.960;2022-09-13T14:58:48;22.80;99.90
29729;DHT22;20055;51.498;11.960;2022-09-13T15:01:19;22.90;99.90
29729;DHT22;20055;51.498;11.960;2022-09-13T15:03:47;22.90;99.90
29729;DHT22;20055;51.498;11.960;2022-09-13T15:06:30;22.90;99.90
29729;DHT22;20055;51.498;11.960;2022-09-13T15:09:45;22.80;99.90
29729;DHT22;20055;51.498;11.960;2022-09-13T15:14:29;22.60;99.90
29729;DHT22;20055;51.498;11.960;2022-09-13T15:17:07;22.60;99.90
29729;DHT22;20055;51.498;11.960;2022-09-13T15:19:40;22.60;99.90
29729;DHT22;20055;51.498;11.960;2022-09-13T15:24:50;22.50;99.90
29729;DHT22;20055;51.498;11.960;2022-09-13T15:27:31;22.40;99.90
29729;DHT22;20055;51.498;11.960;2022-09-13T15:32:49;22.60;99.90
29729;DHT22;20055;51.498;11.960;2022-09-13T15:35:40;22.70;99.90
29729;DHT22;20055;51.498;11.960;2022-09-13T15:38:27;22.70;99.90
29729;DHT22;20055;51.498;11.960;2022-09-13T15:41:01;22.80;99.90
29729;DHT22;20055;51.498;11.960;2022-09-13T15:43:28;22.80;99.90
29729;DHT22;20055;51.498;11.960;2022-09-13T15:45:57;22.70;99.90
29729;DHT22;20055;51.498;11.960;2022-09-13T15:48:34;22.70;99.90
29729;DHT22;20055;51.498;11.960;2022-09-13T15:51:09;22.60;99.90
29729;DHT22;20055;51.498;11.960;2022-09-13T15:53:40;22.60;99.90
29729;DHT22;20055;51.498;11.960;2022-09-13T15:56:11;22.60;99.90
29729;DHT22;20055;51.498;11.960;2022-09-13T15:58:38;22.70;99.90
29729;DHT22;20055;51.498;11.960;2022-09-13T16:01:04;22.70;99.90
29729;DHT22;20055;51.498;11.960;2022-09-13T16:03:31;22.60;99.90
29729;DHT22;20055;51.498;11.960;2022-09-13T16:05:57;22.60;99.90
29729;DHT22;20055;51.498;11.960;2022-09-13T16:08:24;22.60;99.90
29729;DHT22;20055;51.498;11.960;2022-09-13T16:10:50;22.60;99.90
29729;DHT22;20055;51.498;11.960;2022-09-13T16:13:17;22.60;99.90
29729;DHT22;20055;51.498;11.960;2022-09-13T16:15:43;22.50;99.90
29729;DHT22;20055;51.498;11.960;2022-09-13T16:18:09;22.50;99.90
29729;DHT22;20055;51.498;11.960;2022-09-13T16:20:36;22.30;99.90
29729;DHT22;20055;51.498;11.960;2022-09-13T16:23:02;22.30;99.90
29729;DHT22;20055;51.498;11.960;2022-09-13T16:25:28;22.30;99.90
29729;DHT22;20055;51.498;11.960;2022-09-13T16:27:56;22.30;99.90
29729;DHT22;20055;51.498;11.960;2022-09-13T16:30:23;22.30;99.90
29729;DHT22;20055;51.498;11.960;2022-09-13T16:32:49;22.30;99.90
29729;DHT22;20055;51.498;11.960;2022-09-13T16:35:15;22.30;99.90
29729;DHT22;20055;51.498;11.960;2022-09-13T16:37:42;22.10;99.90
29729;DHT22;20055;51.498;11.960;2022-09-13T16:40:10;22.10;99.90
29729;DHT22;20055;51.498;11.960;2022-09-13T16:42:36;22.10;99.90
29729;DHT22;20055;51.498;11.960;2022-09-13T16:45:02;22.10;99.90
29729;DHT22;20055;51.498;11.960;2022-09-13T16:47:30;22.10;99.90
29729;DHT22;20055;51.498;11.960;2022-09-13T16:49:56;22.00;99.90
29729;DHT22;20055;51.498;11.960;2022-09-13T16:52:22;22.00;99.90
29729;DHT22;20055;51.498;11.960;2022-09-13T16:54:48;22.00;99.90
29729;DHT22;20055;51.498;11.960;2022-09-13T16:57:16;22.00;99.90
29729;DHT22;20055;51.498;11.960;2022-09-13T16:59:42;22.00;99.90
29729;DHT22;20055;51.498;11.960;2022-09-13T17:02:12;21.90;99.90
29729;DHT22;20055;51.498;11.960;2022-09-13T17:04:38;21.90;99.90
29729;DHT22;20055;51.498;11.960;2022-09-13T17:07:05;21.90;99.90
29729;DHT22;20055;51.498;11.960;2022-09-13T17:09:33;21.70;99.90
29729;DHT22;20055;51.498;11.960;2022-09-13T17:11:59;21.70;99.90
29729;DHT22;20055;51.498;11.960;2022-09-13T17:14:26;21.70;99.90
29729;DHT22;20055;51.498;11.960;2022-09-13T17:16:54;21.70;99.90
29729;DHT22;20055;51.498;11.960;2022-09-13T17:19:30;21.60;99.90
29729;DHT22;20055;51.498;11.960;2022-09-13T17:21:59;21.50;99.90
29729;DHT22;20055;51.498;11.960;2022-09-13T17:24:28;21.50;99.90
29729;DHT22;20055;51.498;11.960;2022-09-13T17:26:56;21.50;99.90
29729;DHT22;20055;51.498;11.960;2022-09-13T17:29:24;21.30;99.90
29729;DHT22;20055;51.498;11.960;2022-09-13T17:31:51;21.40;99.90
29729;DHT22;20055;51.498;11.960;2022-09-13T17:34:17;21.30;99.90
29729;DHT22;20055;51.498;11.960;2022-09-13T17:36:44;21.20;99.90
29729;DHT22;20055;51.498;11.960;2022-09-13T17:39:10;21.20;99.90
29729;DHT22;20055;51.498;11.960;2022-09-13T17:41:37;21.10;99.90
29729;DHT22;20055;51.498;11.960;2022-09-13T17:44:03;21.10;99.90
29729;DHT22;20055;51.498;11.960;2022-09-13T17:46:29;21.00;99.90
29729;DHT22;20055;51.498;11.960;2022-09-13T17:48:57;21.00;99.90
29729;DHT22;20055;51.498;11.960;2022-09-13T17:51:27;20.90;99.90
29729;DHT22;20055;51.498;11.960;2022-09-13T17:53:59;20.90;99.90
29729;DHT22;20055;51.498;11.960;2022-09-13T17:56:32;20.80;99.90
29729;DHT22;20055;51.498;11.960;2022-09-13T17:59:05;20.90;99.90
29729;DHT22;20055;51.498;11.960;2022-09-13T18:01:33;20.80;99.90
29729;DHT22;20055;51.498;11.960;2022-09-13T18:03:59;20.80;99.90
29729;DHT22;20055;51.498;11.960;2022-09-13T18:06:25;20.80;99.90
29729;DHT22;20055;51.498;11.960;2022-09-13T18:08:52;20.70;99.90
29729;DHT22;20055;51.498;11.960;2022-09-13T18:11:20;20.60;99.90
29729;DHT22;20055;51.498;11.960;2022-09-13T18:13:46;20.60;99.90
29729;DHT22;20055;51.498;11.960;2022-09-13T18:16:23;20.50;99.90
29729;DHT22;20055;51.498;11.960;2022-09-13T18:18:50;20.50;99.90
29729;DHT22;20055;51.498;11.960;2022-09-13T18:21:22;20.50;99.90
29729;DHT22;20055;51.498;11.960;2022-09-13T18:23:51;20.40;99.90
29729;DHT22;20055;51.498;11.960;2022-09-13T18:26:20;20.40;99.90
29729;DHT22;20055;51.498;11.960;2022-09-13T18:28:51;20.30;99.90
29729;DHT22;20055;51.498;11.960;2022-09-13T18:31:18;20.30;99.90
29729;DHT22;20055;51.498;11.960;2022-09-13T18:33:44;20.30;99.90
29729;DHT22;20055;51.498;11.960;2022-09-13T18:36:13;20.30;99.90
29729;DHT22;20055;51.498;11.960;2022-09-13T18:38:41;20.20;99.90
29729;DHT22;20055;51.498;11.960;2022-09-13T18:41:10;20.10;99.90
29729;DHT22;20055;51.498;11.960;2022-09-13T18:43:39;20.10;99.90